Andover, Kansas
Current Conditions -  °F | °C
As of 11:54 AM on Thursday 30 Oct 2014 (Local Time) from KAAO Reporting Station
Clear Clear  
Wind Chill: 19°   Ceiling: Unl
Heat Index: 19°   Visibility: 10mi
Dew Point:   Wind: 24mph
Humidity: 31%   Direction: 10°N
Pressure: 30.14"   Gusts: 29mph
Location:  37.71°N, 97.14°W
Report Text: KAAO 301654Z AUTO 01021G25KT 10SM CLR 19/02 A3014 RMK AO2 PK WND 36028/1625 SLP204 T01940017
Loading
Personal Weather Stations






























Interactive Weather Map
Tropical Storm Tracking
New forecast layout! Learn more

10-Day Weather Forecast

Advertisements
Track Severe Weather on mobile